Time;durP1;ratioP1;P1;durP2;ratioP2;P2;SDS_P1;SDS_P2;PMS_P1;PMS_P2;Temp;Humidity;BMP_temperature;BMP_pressure;BME280_temperature;BME280_humidity;BME280_pressure;Samples;Min_cycle;Max_cycle;Signal;HPM_P1;HPM_P2
2021/05/09 00:00:33;;;;;;;10.63;6.03;;;4.70;99.90;;;;;;4207674;28;20319;-54
2021/05/09 00:02:34;;;;;;;12.27;7.40;;;4.70;99.90;;;;;;4207718;28;20281;-57
2021/05/09 00:04:35;;;;;;;10.30;6.70;;;4.60;99.90;;;;;;4204731;28;21052;-57
2021/05/09 00:06:37;;;;;;;10.60;6.40;;;4.70;99.90;;;;;;4190724;28;20646;-55
2021/05/09 00:08:38;;;;;;;11.17;7.13;;;4.60;99.90;;;;;;4190653;28;20335;-66
2021/05/09 00:10:39;;;;;;;11.83;6.93;;;4.60;99.90;;;;;;4191516;28;20273;-56
2021/05/09 00:12:41;;;;;;;11.27;6.57;;;4.50;99.90;;;;;;4190106;28;20814;-59
2021/05/09 00:14:42;;;;;;;11.23;6.47;;;4.50;99.90;;;;;;4191137;28;20300;-56
2021/05/09 00:16:43;;;;;;;13.33;7.03;;;4.50;99.90;;;;;;4190252;28;20671;-62
2021/05/09 00:18:44;;;;;;;9.03;5.83;;;4.40;99.90;;;;;;4191136;28;20710;-60
2021/05/09 00:20:45;;;;;;;14.03;6.27;;;4.30;99.90;;;;;;4191053;28;20818;-53
2021/05/09 00:22:47;;;;;;;9.10;5.67;;;4.30;99.90;;;;;;4191220;28;20303;-59
2021/05/09 00:24:48;;;;;;;9.37;6.03;;;4.20;99.90;;;;;;4199173;28;20280;-60
2021/05/09 00:26:49;;;;;;;9.27;5.33;;;4.30;99.90;;;;;;4207557;28;20335;-58
2021/05/09 00:28:50;;;;;;;10.63;5.80;;;4.30;99.90;;;;;;4207905;28;20274;-59
2021/05/09 00:30:51;;;;;;;11.40;5.90;;;4.20;99.90;;;;;;4207854;28;20326;-55
2021/05/09 00:32:52;;;;;;;10.33;6.30;;;4.20;99.90;;;;;;4207170;28;20280;-63
2021/05/09 00:34:54;;;;;;;8.67;5.37;;;4.20;99.90;;;;;;4206714;28;20354;-61
2021/05/09 00:36:55;;;;;;;12.17;5.47;;;4.20;99.90;;;;;;4207668;28;20268;-61
2021/05/09 00:38:56;;;;;;;8.20;5.40;;;4.20;99.90;;;;;;4206778;28;20330;-56
2021/05/09 00:40:57;;;;;;;9.33;5.33;;;4.20;99.90;;;;;;4206816;28;20613;-58
2021/05/09 00:42:58;;;;;;;8.67;5.60;;;4.10;99.90;;;;;;4207387;28;20280;-56
2021/05/09 00:44:59;;;;;;;9.40;5.63;;;4.10;99.90;;;;;;4207353;28;20280;-59
2021/05/09 00:47:07;;;;;;;8.20;5.07;;;4.10;99.90;;;;;;4207007;28;20277;-61
2021/05/09 00:49:08;;;;;;;11.20;5.57;;;4.20;99.90;;;;;;4207386;28;20357;-62
2021/05/09 00:51:09;;;;;;;9.47;5.27;;;4.20;99.90;;;;;;4206715;28;20333;-56
2021/05/09 00:53:13;;;;;;;17.13;6.80;;;4.10;99.90;;;;;;4208146;28;20337;-57
2021/05/09 00:55:16;;;;;;;10.40;6.13;;;4.10;99.90;;;;;;4206270;28;20284;-62
2021/05/09 00:57:19;;;;;;;9.50;5.97;;;4.00;99.90;;;;;;4206899;28;20601;-54
2021/05/09 00:59:21;;;;;;;8.37;5.77;;;3.90;99.90;;;;;;4206870;28;20730;-58
2021/05/09 01:01:23;;;;;;;8.70;5.20;;;3.90;99.90;;;;;;4207138;28;20314;-58
2021/05/09 01:03:27;;;;;;;10.77;5.87;;;3.90;99.90;;;;;;4206943;28;20337;-59
2021/05/09 01:05:29;;;;;;;10.23;5.27;;;3.90;99.90;;;;;;4206901;28;20712;-58
2021/05/09 01:07:31;;;;;;;7.37;4.50;;;3.80;99.90;;;;;;4206303;28;20280;-60
2021/05/09 01:09:33;;;;;;;7.57;4.83;;;3.80;99.90;;;;;;4206837;28;20810;-59
2021/05/09 01:11:35;;;;;;;9.10;4.67;;;3.80;99.90;;;;;;4206710;28;21105;-60
2021/05/09 01:13:37;;;;;;;10.33;4.50;;;3.90;99.90;;;;;;4206000;28;20671;-59
2021/05/09 01:15:38;;;;;;;10.70;5.20;;;3.80;99.90;;;;;;4206307;28;20284;-62
2021/05/09 01:17:39;;;;;;;8.40;4.50;;;3.90;99.90;;;;;;4206157;28;20318;-59
2021/05/09 01:19:41;;;;;;;8.67;5.03;;;3.90;99.90;;;;;;4206513;28;21614;-58
2021/05/09 01:21:42;;;;;;;8.63;4.97;;;3.80;99.90;;;;;;4207272;28;20280;-60
2021/05/09 01:23:44;;;;;;;9.50;5.20;;;3.80;99.90;;;;;;4223458;28;20329;-59
2021/05/09 01:25:45;;;;;;;10.73;5.20;;;3.80;99.90;;;;;;4222000;28;20349;-58
2021/05/09 01:27:46;;;;;;;8.80;5.03;;;3.80;99.90;;;;;;4223332;27;20272;-57
2021/05/09 01:29:48;;;;;;;8.83;4.90;;;3.70;99.90;;;;;;4223317;28;20341;-56
2021/05/09 01:31:53;;;;;;;9.73;5.17;;;3.80;99.90;;;;;;4222639;28;20333;-57
2021/05/09 01:33:54;;;;;;;11.60;5.80;;;3.70;99.90;;;;;;4209059;28;20326;-58
2021/05/09 01:35:56;;;;;;;11.13;5.90;;;3.70;99.90;;;;;;4206146;28;20289;-62
2021/05/09 01:37:57;;;;;;;11.37;5.93;;;3.60;99.90;;;;;;4206207;28;20276;-62
2021/05/09 01:39:58;;;;;;;8.87;5.10;;;3.60;99.90;;;;;;4205756;28;20330;-57
2021/05/09 01:42:01;;;;;;;7.23;4.53;;;3.50;99.90;;;;;;4204933;28;20337;-61
2021/05/09 01:44:02;;;;;;;7.37;4.47;;;3.50;99.90;;;;;;4206840;28;20280;-60
2021/05/09 01:46:04;;;;;;;6.07;4.00;;;3.50;99.90;;;;;;4206164;28;20276;-58
2021/05/09 01:48:05;;;;;;;8.23;4.20;;;3.50;99.90;;;;;;4206241;28;20817;-59
2021/05/09 01:50:10;;;;;;;6.57;4.40;;;3.50;99.90;;;;;;4206387;28;20663;-58
2021/05/09 01:52:11;;;;;;;7.83;4.67;;;3.50;99.90;;;;;;4216218;28;21132;-63
2021/05/09 01:54:12;;;;;;;7.77;4.77;;;3.50;99.90;;;;;;4222701;28;20276;-56
2021/05/09 01:56:16;;;;;;;8.33;4.27;;;3.50;99.90;;;;;;4222237;28;20740;-66
2021/05/09 01:58:17;;;;;;;6.73;4.27;;;3.50;99.90;;;;;;4223122;28;20264;-60
2021/05/09 02:00:20;;;;;;;7.40;3.93;;;3.40;99.90;;;;;;4222461;28;20275;-64
2021/05/09 02:02:21;;;;;;;8.60;4.40;;;3.40;99.90;;;;;;4222490;27;20279;-60
2021/05/09 02:04:22;;;;;;;8.83;3.97;;;3.30;99.90;;;;;;4222835;28;21046;-57
2021/05/09 02:06:23;;;;;;;7.67;5.00;;;3.30;99.90;;;;;;4220315;28;20836;-62
2021/05/09 02:08:25;;;;;;;13.63;4.50;;;3.30;99.90;;;;;;4222425;28;20293;-62
2021/05/09 02:10:26;;;;;;;7.37;4.40;;;3.30;99.90;;;;;;4222406;28;20321;-57
2021/05/09 02:12:27;;;;;;;5.40;4.27;;;3.30;99.90;;;;;;4222663;28;20264;-57
2021/05/09 02:14:28;;;;;;;8.57;5.20;;;3.30;99.90;;;;;;4222358;28;20325;-58
2021/05/09 02:16:30;;;;;;;8.77;5.50;;;3.30;99.90;;;;;;4222481;28;20321;-55
2021/05/09 02:18:31;;;;;;;12.30;5.70;;;3.20;99.90;;;;;;4221978;28;20268;-60
2021/05/09 02:20:32;;;;;;;9.00;5.37;;;3.20;99.90;;;;;;4222878;28;20272;-61
2021/05/09 02:22:33;;;;;;;7.53;5.37;;;3.10;99.90;;;;;;4222230;28;20739;-55
2021/05/09 02:24:34;;;;;;;14.83;5.90;;;3.10;99.90;;;;;;4223064;28;20337;-57
2021/05/09 02:26:35;;;;;;;15.23;5.90;;;3.10;99.90;;;;;;4221966;28;20678;-60
2021/05/09 02:28:36;;;;;;;9.23;5.23;;;3.10;99.90;;;;;;4222678;28;20293;-55
2021/05/09 02:30:37;;;;;;;11.13;5.70;;;3.00;99.90;;;;;;4205511;28;20326;-58
2021/05/09 02:32:39;;;;;;;11.83;5.23;;;3.00;99.90;;;;;;4204138;28;20284;-57
2021/05/09 02:34:40;;;;;;;9.63;5.73;;;3.00;99.90;;;;;;4205154;28;20618;-55
2021/05/09 02:36:43;;;;;;;12.97;6.17;;;3.00;99.90;;;;;;4205788;28;20306;-59
2021/05/09 02:38:44;;;;;;;11.93;5.83;;;3.00;99.90;;;;;;4205781;28;20265;-62
2021/05/09 02:40:45;;;;;;;8.57;5.40;;;3.00;99.90;;;;;;4205400;28;20874;-59
2021/05/09 02:42:47;;;;;;;8.63;5.53;;;3.00;99.90;;;;;;4205265;28;20801;-56
2021/05/09 02:44:48;;;;;;;11.43;5.97;;;2.90;99.90;;;;;;4205409;28;20681;-57
2021/05/09 02:46:49;;;;;;;10.60;5.57;;;2.90;99.90;;;;;;4205828;28;20816;-60
2021/05/09 02:48:51;;;;;;;8.47;5.10;;;2.90;99.90;;;;;;4204889;28;20272;-57
2021/05/09 02:50:52;;;;;;;8.83;5.83;;;2.90;99.90;;;;;;4205562;28;20326;-61
2021/05/09 02:52:53;;;;;;;9.50;5.90;;;3.00;99.90;;;;;;4206570;28;20291;-58
2021/05/09 02:54:54;;;;;;;11.23;6.73;;;3.00;99.90;;;;;;4205310;28;20420;-60
2021/05/09 02:56:55;;;;;;;10.27;5.97;;;3.00;99.90;;;;;;4205179;28;20326;-60
2021/05/09 02:58:56;;;;;;;12.70;6.27;;;3.00;99.90;;;;;;4205768;28;20265;-58
2021/05/09 03:00:57;;;;;;;10.13;6.70;;;3.00;99.90;;;;;;4205023;28;20610;-57
2021/05/09 03:02:58;;;;;;;8.80;6.13;;;3.00;99.90;;;;;;4206308;28;20837;-58
2021/05/09 03:05:00;;;;;;;14.77;6.47;;;3.00;99.90;;;;;;4208543;28;20272;-60
2021/05/09 03:07:01;;;;;;;13.50;6.70;;;3.00;99.90;;;;;;4208730;28;20365;-59
2021/05/09 03:09:03;;;;;;;14.77;6.93;;;3.10;99.90;;;;;;4208975;28;20334;-59
2021/05/09 03:11:04;;;;;;;18.90;6.80;;;3.20;99.90;;;;;;4208270;28;20330;-59
2021/05/09 03:13:05;;;;;;;13.97;7.33;;;3.20;99.90;;;;;;4200685;28;20323;-53
2021/05/09 03:15:06;;;;;;;14.47;7.73;;;3.10;99.90;;;;;;4191691;28;20301;-61
2021/05/09 03:17:08;;;;;;;15.47;7.97;;;3.20;99.90;;;;;;4192918;28;20683;-59
2021/05/09 03:19:09;;;;;;;12.20;6.63;;;3.30;99.90;;;;;;4191269;28;20307;-59
2021/05/09 03:21:10;;;;;;;11.97;6.60;;;3.60;99.90;;;;;;4192083;28;20664;-59
2021/05/09 03:23:11;;;;;;;13.97;7.33;;;3.90;99.90;;;;;;4191592;28;20270;-59
2021/05/09 03:25:12;;;;;;;12.83;8.00;;;4.20;99.90;;;;;;4191963;28;20261;-58
2021/05/09 03:27:13;;;;;;;15.80;7.97;;;4.60;99.90;;;;;;4191338;28;20772;-57
2021/05/09 03:29:14;;;;;;;16.00;8.73;;;5.00;99.90;;;;;;4191459;28;20370;-57
2021/05/09 03:31:16;;;;;;;15.87;8.60;;;5.40;99.90;;;;;;4196633;28;20326;-58
2021/05/09 03:33:17;;;;;;;20.77;8.97;;;5.70;99.90;;;;;;4208536;28;20334;-57
2021/05/09 03:35:18;;;;;;;17.20;7.97;;;6.00;99.90;;;;;;4207929;28;20300;-58
2021/05/09 03:37:20;;;;;;;13.83;7.83;;;6.40;99.90;;;;;;4208222;28;20273;-53
2021/05/09 03:39:21;;;;;;;12.83;7.80;;;6.70;99.90;;;;;;4207931;28;20310;-60
2021/05/09 03:41:24;;;;;;;10.50;7.10;;;7.00;99.90;;;;;;4208376;28;21577;-61
2021/05/09 03:43:25;;;;;;;13.73;8.10;;;7.30;99.90;;;;;;4207414;28;20085;-60
2021/05/09 03:45:26;;;;;;;14.23;8.83;;;7.80;99.90;;;;;;4207851;28;20085;-65
2021/05/09 03:47:28;;;;;;;15.40;8.10;;;7.80;99.90;;;;;;4207980;28;20093;-60
2021/05/09 03:49:29;;;;;;;14.30;8.57;;;7.70;99.90;;;;;;4207712;28;20024;-62
2021/05/09 03:51:30;;;;;;;13.70;7.30;;;7.90;99.90;;;;;;4207493;28;20024;-63
2021/05/09 03:53:31;;;;;;;12.40;7.77;;;7.90;99.90;;;;;;4208227;28;20094;-55
2021/05/09 03:55:32;;;;;;;11.10;6.83;;;7.90;99.90;;;;;;4208256;28;20044;-58
2021/05/09 03:57:33;;;;;;;12.67;7.57;;;8.30;99.90;;;;;;4207041;28;20101;-62
2021/05/09 03:59:34;;;;;;;15.50;7.80;;;8.80;99.90;;;;;;4208107;28;20036;-58
2021/05/09 04:01:35;;;;;;;11.00;7.60;;;9.00;99.90;;;;;;4208513;28;20032;-59
2021/05/09 04:03:36;;;;;;;11.60;5.90;;;9.30;99.90;;;;;;4211388;28;20064;-62
2021/05/09 04:05:38;;;;;;;8.10;4.90;;;9.80;99.90;;;;;;4223996;28;20035;-59
2021/05/09 04:07:39;;;;;;;8.07;5.20;;;10.20;99.90;;;;;;4224183;28;20035;-53
2021/05/09 04:09:40;;;;;;;13.67;5.03;;;10.30;99.90;;;;;;4224658;28;20035;-64
2021/05/09 04:11:41;;;;;;;10.93;6.20;;;10.20;99.90;;;;;;4224565;28;20040;-57
2021/05/09 04:13:47;;;;;;;9.00;5.27;;;10.40;99.90;;;;;;4224131;28;21006;-62
2021/05/09 04:15:49;;;;;;;11.30;5.70;;;10.50;99.90;;;;;;4223501;28;20055;-61
2021/05/09 04:17:50;;;;;;;7.57;4.87;;;10.60;99.90;;;;;;4224221;28;20031;-58
2021/05/09 04:19:51;;;;;;;9.07;5.33;;;10.70;99.70;;;;;;4223782;28;20036;-58
2021/05/09 04:21:52;;;;;;;7.60;5.07;;;11.20;98.80;;;;;;4222766;27;20711;-60
2021/05/09 04:23:53;;;;;;;9.23;5.83;;;11.80;97.90;;;;;;4224484;28;20151;-63
2021/05/09 04:25:54;;;;;;;8.80;5.23;;;11.90;95.60;;;;;;4224306;27;20032;-64
2021/05/09 04:27:55;;;;;;;8.47;5.90;;;11.70;95.50;;;;;;4218764;27;20097;-67
2021/05/09 04:29:56;;;;;;;11.70;6.13;;;11.50;95.80;;;;;;4207707;28;20024;-59
2021/05/09 04:31:57;;;;;;;10.83;6.23;;;12.20;95.40;;;;;;4206981;28;20025;-58
2021/05/09 04:33:59;;;;;;;7.43;5.57;;;12.20;93.90;;;;;;4207193;28;20023;-59
2021/05/09 04:36:00;;;;;;;13.87;5.93;;;12.60;93.40;;;;;;4206385;28;20024;-57
2021/05/09 04:38:04;;;;;;;11.27;6.13;;;12.90;92.30;;;;;;4207380;28;20074;-59
2021/05/09 04:40:06;;;;;;;10.80;6.17;;;12.90;91.40;;;;;;4206791;28;20036;-59
2021/05/09 04:42:07;;;;;;;7.87;6.23;;;13.10;91.30;;;;;;4206355;28;20093;-59
2021/05/09 04:44:08;;;;;;;14.03;6.93;;;13.60;90.00;;;;;;4206978;28;20077;-58
2021/05/09 04:46:09;;;;;;;14.07;8.30;;;13.60;88.00;;;;;;4207275;28;20389;-57
2021/05/09 04:48:10;;;;;;;14.83;7.90;;;13.70;86.50;;;;;;4206964;28;20073;-59
2021/05/09 04:50:12;;;;;;;15.83;6.57;;;13.40;85.50;;;;;;4207894;28;20027;-59
2021/05/09 04:52:13;;;;;;;15.17;8.07;;;13.30;86.50;;;;;;4207177;28;20085;-56
2021/05/09 04:54:15;;;;;;;10.43;6.53;;;13.50;85.70;;;;;;4206503;28;20101;-59
2021/05/09 04:56:19;;;;;;;11.23;6.67;;;13.80;84.40;;;;;;4206859;28;21001;-59
2021/05/09 04:58:20;;;;;;;14.30;6.47;;;14.30;82.50;;;;;;4206357;28;20407;-60
2021/05/09 05:00:21;;;;;;;14.07;6.70;;;14.90;79.50;;;;;;4206512;28;20073;-59
2021/05/09 05:02:23;;;;;;;12.10;6.63;;;15.40;77.10;;;;;;4206282;28;20089;-58
2021/05/09 05:04:24;;;;;;;12.60;6.67;;;15.80;74.40;;;;;;4206912;28;20052;-57
2021/05/09 05:06:25;;;;;;;10.40;7.03;;;15.60;73.70;;;;;;4205579;28;20093;-59
2021/05/09 05:08:27;;;;;;;11.43;6.27;;;15.00;74.60;;;;;;4206387;28;20062;-59
2021/05/09 05:10:28;;;;;;;10.60;7.07;;;15.20;74.80;;;;;;4206656;28;20032;-58
2021/05/09 05:12:30;;;;;;;13.00;6.67;;;15.80;72.90;;;;;;4222084;28;20036;-59
2021/05/09 05:14:31;;;;;;;11.97;6.43;;;15.20;72.10;;;;;;4221035;28;20016;-59
2021/05/09 05:16:32;;;;;;;9.57;7.23;;;15.00;73.00;;;;;;4223015;28;20092;-59
2021/05/09 05:18:36;;;;;;;11.23;6.47;;;15.10;72.60;;;;;;4223254;28;20365;-57
2021/05/09 05:20:38;;;;;;;14.03;8.00;;;14.70;72.70;;;;;;4221090;28;20057;-59
2021/05/09 05:22:39;;;;;;;11.03;7.00;;;14.40;74.00;;;;;;4223107;28;20031;-58
2021/05/09 05:24:41;;;;;;;14.80;7.60;;;14.50;73.60;;;;;;4223233;28;20032;-59
2021/05/09 05:26:42;;;;;;;8.83;5.90;;;14.40;72.60;;;;;;4222985;28;20020;-57
2021/05/09 05:28:43;;;;;;;12.93;6.90;;;14.00;73.50;;;;;;4222853;27;20040;-62
2021/05/09 05:30:45;;;;;;;9.27;6.50;;;13.70;74.00;;;;;;4223494;27;20097;-61
2021/05/09 05:32:49;;;;;;;8.80;6.07;;;13.70;74.90;;;;;;4223007;28;20027;-61
2021/05/09 05:34:51;;;;;;;10.20;6.43;;;13.80;74.70;;;;;;4223458;28;20039;-59
2021/05/09 05:36:52;;;;;;;10.23;5.80;;;13.80;74.40;;;;;;4221114;27;20446;-63
2021/05/09 05:38:53;;;;;;;10.80;6.00;;;13.70;74.50;;;;;;4220765;28;20088;-60
2021/05/09 05:40:55;;;;;;;10.83;6.23;;;13.70;73.90;;;;;;4222949;28;20027;-61
2021/05/09 05:42:56;;;;;;;10.53;6.07;;;13.10;75.50;;;;;;4222794;28;20032;-60
2021/05/09 05:44:58;;;;;;;15.27;8.27;;;13.10;76.40;;;;;;4222517;28;20483;-58
2021/05/09 05:46:59;;;;;;;9.57;6.67;;;13.50;76.10;;;;;;4222931;28;20031;-58
2021/05/09 05:49:00;;;;;;;11.87;6.40;;;13.20;76.50;;;;;;4222595;27;20043;-59
2021/05/09 05:51:01;;;;;;;11.70;5.97;;;13.00;76.90;;;;;;4222777;27;20036;-64
2021/05/09 05:53:03;;;;;;;14.27;7.03;;;12.60;77.70;;;;;;4221234;28;20919;-61
2021/05/09 05:55:05;;;;;;;10.23;5.43;;;13.10;77.80;;;;;;4223209;28;20047;-59
2021/05/09 05:57:06;;;;;;;10.97;5.83;;;13.20;76.20;;;;;;4220881;28;20048;-58
2021/05/09 05:59:07;;;;;;;9.97;6.30;;;13.20;76.00;;;;;;4222373;28;20035;-57
2021/05/09 06:01:08;;;;;;;14.77;6.27;;;13.30;76.70;;;;;;4221575;27;20047;-59
2021/05/09 06:03:10;;;;;;;9.73;5.67;;;13.50;75.30;;;;;;4222040;28;20132;-59
2021/05/09 06:05:11;;;;;;;10.30;5.90;;;13.30;75.30;;;;;;4220594;28;20433;-57
2021/05/09 06:07:12;;;;;;;8.30;5.27;;;13.00;75.50;;;;;;4209205;28;20104;-61
2021/05/09 06:09:14;;;;;;;14.07;5.80;;;13.00;76.80;;;;;;4217801;28;20092;-59
2021/05/09 06:11:15;;;;;;;9.87;6.27;;;12.90;76.30;;;;;;4222217;28;20493;-58
2021/05/09 06:13:20;;;;;;;9.17;6.13;;;12.60;76.70;;;;;;4222616;28;20050;-62
2021/05/09 06:15:23;;;;;;;11.27;5.50;;;12.40;77.80;;;;;;4222294;28;20032;-58
2021/05/09 06:17:25;;;;;;;8.73;5.63;;;12.20;78.70;;;;;;4222350;28;20027;-63
2021/05/09 06:19:26;;;;;;;10.40;5.50;;;12.00;80.40;;;;;;4222295;28;20023;-55
2021/05/09 06:21:27;;;;;;;8.37;4.60;;;11.70;81.60;;;;;;4222230;28;20061;-62
2021/05/09 06:23:28;;;;;;;8.50;4.90;;;11.50;81.10;;;;;;4222231;28;20479;-59
2021/05/09 06:25:30;;;;;;;9.83;5.87;;;11.40;81.70;;;;;;4221771;28;20031;-65
2021/05/09 06:27:31;;;;;;;6.80;4.60;;;11.30;82.90;;;;;;4221808;28;20453;-56
2021/05/09 06:29:33;;;;;;;12.43;5.03;;;11.40;83.00;;;;;;4197045;28;20082;-63
2021/05/09 06:31:34;;;;;;;8.00;4.27;;;11.60;82.90;;;;;;4189000;28;20484;-57
2021/05/09 06:33:35;;;;;;;6.13;4.37;;;12.00;81.70;;;;;;4204330;28;20077;-60
2021/05/09 06:35:38;;;;;;;5.53;3.20;;;12.20;80.00;;;;;;4205017;28;20077;-59
2021/05/09 06:37:40;;;;;;;2.83;2.53;;;12.30;79.00;;;;;;4206023;28;20488;-60
2021/05/09 06:39:42;;;;;;;4.83;3.57;;;12.00;78.00;;;;;;4212965;28;20039;-61
2021/05/09 06:41:43;;;;;;;4.73;3.90;;;12.10;79.10;;;;;;4207386;28;20085;-58
2021/05/09 06:43:44;;;;;;;5.00;3.13;;;12.10;79.50;;;;;;4208449;28;20024;-58
2021/05/09 06:45:47;;;;;;;6.37;3.37;;;12.20;79.50;;;;;;4207361;28;20041;-59
2021/05/09 06:47:50;;;;;;;5.63;3.57;;;12.40;79.30;;;;;;4207575;28;20028;-58
2021/05/09 06:49:51;;;;;;;5.83;3.13;;;12.30;80.10;;;;;;4208403;28;20085;-66
2021/05/09 06:51:52;;;;;;;8.17;3.50;;;12.50;80.90;;;;;;4208088;28;20040;-53
2021/05/09 06:53:55;;;;;;;6.50;3.57;;;12.70;81.20;;;;;;4208336;28;20608;-55
2021/05/09 06:55:58;;;;;;;7.30;4.17;;;12.70;82.80;;;;;;4208258;28;20036;-56
2021/05/09 06:58:02;;;;;;;6.37;4.03;;;12.80;84.60;;;;;;4207930;28;20040;-60
2021/05/09 07:00:06;;;;;;;8.00;4.00;;;13.10;86.00;;;;;;4206791;28;20052;-51
2021/05/09 07:02:08;;;;;;;8.57;4.37;;;13.30;85.90;;;;;;4207894;28;20032;-56
2021/05/09 07:04:11;;;;;;;4.27;3.70;;;13.80;85.50;;;;;;4207709;28;20085;-57
2021/05/09 07:06:12;;;;;;;5.50;3.37;;;13.90;85.10;;;;;;4208402;28;20500;-55
2021/05/09 07:08:13;;;;;;;24.90;11.50;;;13.90;86.30;;;;;;4207114;28;20024;-56
2021/05/09 07:10:14;;;;;;;9.47;5.67;;;13.60;87.70;;;;;;4208098;28;20136;-58
2021/05/09 07:12:15;;;;;;;8.13;4.07;;;13.70;88.40;;;;;;4207504;28;20048;-55
2021/05/09 07:14:16;;;;;;;5.17;3.23;;;13.70;89.00;;;;;;4206511;28;20036;-56
2021/05/09 07:16:17;;;;;;;4.53;3.50;;;13.90;89.10;;;;;;4207265;28;20636;-57
2021/05/09 07:18:21;;;;;;;5.40;3.23;;;13.90;89.30;;;;;;4209345;28;20446;-59
2021/05/09 07:20:22;;;;;;;7.87;3.80;;;13.70;89.30;;;;;;4207084;28;20040;-60
2021/05/09 07:22:31;;;;;;;6.77;3.43;;;13.80;89.60;;;;;;4220674;28;20433;-56
2021/05/09 07:24:32;;;;;;;5.40;3.70;;;13.90;88.60;;;;;;4224830;28;20031;-56
2021/05/09 07:26:33;;;;;;;4.73;3.37;;;14.10;87.50;;;;;;4223265;27;20093;-58
2021/05/09 07:28:34;;;;;;;4.10;2.90;;;14.40;86.40;;;;;;4224991;27;20035;-53
2021/05/09 07:30:37;;;;;;;5.63;3.30;;;14.30;84.90;;;;;;4224552;27;20028;-55
2021/05/09 07:32:38;;;;;;;4.43;3.27;;;14.30;84.20;;;;;;4224005;28;20027;-59
2021/05/09 07:34:39;;;;;;;6.03;3.20;;;14.30;83.80;;;;;;4224255;28;20613;-56
2021/05/09 07:36:40;;;;;;;5.43;2.80;;;14.40;83.80;;;;;;4224087;28;20562;-63
2021/05/09 07:38:41;;;;;;;4.30;2.77;;;15.00;82.30;;;;;;4223935;28;20401;-62
2021/05/09 07:40:43;;;;;;;8.87;2.80;;;15.10;80.80;;;;;;4224538;28;20687;-57
2021/05/09 07:42:44;;;;;;;4.07;2.47;;;15.20;79.40;;;;;;4223996;28;20101;-58
2021/05/09 07:44:45;;;;;;;6.63;3.27;;;15.20;78.60;;;;;;4222988;27;20048;-55
2021/05/09 07:46:46;;;;;;;6.40;2.93;;;15.30;78.00;;;;;;4223658;27;20040;-51
2021/05/09 07:48:49;;;;;;;2.93;2.63;;;15.50;77.30;;;;;;4224210;28;20176;-57
2021/05/09 07:50:50;;;;;;;4.43;2.70;;;15.60;75.90;;;;;;4223823;28;20507;-59
2021/05/09 07:52:52;;;;;;;3.70;2.63;;;15.80;75.60;;;;;;4224359;28;20040;-59
2021/05/09 07:54:53;;;;;;;4.47;2.57;;;16.10;75.50;;;;;;4223548;28;20032;-57
2021/05/09 07:56:54;;;;;;;5.50;2.97;;;16.30;72.70;;;;;;4223955;27;20097;-59
2021/05/09 07:58:55;;;;;;;6.90;2.27;;;16.20;70.50;;;;;;4223840;28;20397;-56
2021/05/09 08:00:56;;;;;;;2.13;1.67;;;16.10;68.50;;;;;;4223779;28;20081;-57
2021/05/09 08:02:57;;;;;;;2.08;1.85;;;16.00;66.10;;;;;;4223844;28;20108;-58
2021/05/09 08:04:58;;;;;;;2.37;1.50;;;16.10;65.40;;;;;;4223903;28;20056;-64
2021/05/09 08:07:00;;;;;;;3.28;1.45;;;16.50;64.70;;;;;;4223759;28;20051;-68
2021/05/09 08:09:01;;;;;;;5.50;2.05;;;16.60;63.40;;;;;;4221830;28;20073;-65
2021/05/09 08:11:02;;;;;;;2.95;1.58;;;16.70;61.30;;;;;;4224151;28;20055;-74
2021/05/09 08:13:04;;;;;;;5.30;1.83;;;16.80;59.80;;;;;;4222674;28;20552;-68
2021/05/09 08:15:06;;;;;;;4.32;1.02;;;17.10;58.80;;;;;;4224080;28;20028;-67
2021/05/09 08:17:07;;;;;;;1.67;1.23;;;17.20;58.00;;;;;;4223138;28;20085;-64
2021/05/09 08:19:08;;;;;;;1.45;1.17;;;17.10;57.80;;;;;;4224469;27;20080;-66
2021/05/09 08:21:09;;;;;;;1.95;1.17;;;16.80;57.30;;;;;;4223224;28;20100;-69
2021/05/09 08:23:11;;;;;;;2.08;1.30;;;16.70;57.70;;;;;;4224199;28;20028;-67
2021/05/09 08:25:13;;;;;;;5.65;1.27;;;16.60;57.00;;;;;;4223349;28;20081;-64
2021/05/09 08:27:14;;;;;;;1.55;1.08;;;16.30;56.60;;;;;;4221866;28;20801;-64
2021/05/09 08:29:15;;;;;;;1.15;0.95;;;16.30;56.30;;;;;;4223136;28;20035;-66
2021/05/09 08:31:17;;;;;;;2.20;1.33;;;16.40;56.60;;;;;;4223677;28;20036;-67
2021/05/09 08:33:18;;;;;;;1.20;1.00;;;16.30;55.00;;;;;;4221886;28;20057;-70
2021/05/09 08:35:19;;;;;;;2.05;1.10;;;16.20;54.90;;;;;;4223416;28;20059;-66
2021/05/09 08:37:20;;;;;;;7.75;1.00;;;15.90;55.20;;;;;;4217593;28;20040;-70
2021/05/09 08:39:22;;;;;;;1.42;0.88;;;15.80;55.80;;;;;;4206464;28;20040;-77
2021/05/09 08:41:24;;;;;;;1.45;0.73;;;15.80;56.00;;;;;;4215013;28;20102;-74
2021/05/09 08:43:25;;;;;;;1.58;1.20;;;15.90;56.10;;;;;;4223217;28;20097;-75
2021/05/09 08:45:27;;;;;;;2.33;1.05;;;16.10;55.60;;;;;;4223717;28;20031;-64
2021/05/09 08:47:38;;;;;;;2.28;1.05;;;16.10;54.70;;;;;;4223016;28;20236;-64
2021/05/09 08:49:43;;;;;;;1.88;1.00;;;15.90;54.80;;;;;;4223633;28;20105;-67
2021/05/09 08:51:45;;;;;;;2.90;1.17;;;15.90;55.10;;;;;;4222721;28;20077;-65
2021/05/09 08:53:48;;;;;;;1.38;1.02;;;15.90;54.20;;;;;;4225289;27;20487;-74
2021/05/09 08:55:49;;;;;;;1.23;0.77;;;15.90;53.80;;;;;;4221483;27;20134;-64
2021/05/09 08:57:51;;;;;;;1.38;0.90;;;15.90;53.90;;;;;;4222906;28;20496;-71
2021/05/09 08:59:52;;;;;;;2.63;1.00;;;15.90;54.00;;;;;;4217535;28;20032;-63
2021/05/09 09:01:53;;;;;;;3.85;0.98;;;16.00;53.70;;;;;;4206062;28;20039;-63
2021/05/09 09:03:55;;;;;;;1.27;1.00;;;15.90;53.40;;;;;;4207022;28;20846;-67
2021/05/09 09:05:56;;;;;;;2.42;1.25;;;15.90;53.80;;;;;;4206070;28;20096;-58
2021/05/09 09:07:58;;;;;;;2.28;1.48;;;15.80;53.90;;;;;;4206232;28;20024;-59
2021/05/09 09:09:59;;;;;;;0.75;0.75;;;15.80;53.90;;;;;;4204253;28;20105;-58
2021/05/09 09:12:00;;;;;;;1.70;0.88;;;15.70;53.40;;;;;;4206120;28;20067;-59
2021/05/09 09:14:09;;;;;;;1.00;0.82;;;15.60;53.40;;;;;;4205538;28;20093;-60
2021/05/09 09:16:12;;;;;;;0.93;0.70;;;15.70;53.90;;;;;;4205961;28;20085;-56
2021/05/09 09:18:39;;;;;;;0.90;0.73;;;15.90;53.90;;;;;;4206035;28;20101;-58
2021/05/09 09:20:40;;;;;;;0.77;0.70;;;15.80;52.80;;;;;;4205923;28;20032;-58
2021/05/09 09:22:54;;;;;;;4.68;2.65;;;15.60;53.60;;;;;;4205791;28;20215;-56
2021/05/09 09:25:06;;;;;;;1.17;0.90;;;15.70;54.20;;;;;;4205656;28;20097;-59
2021/05/09 09:27:07;;;;;;;0.93;0.85;;;15.80;53.50;;;;;;4218715;28;20035;-58
2021/05/09 09:29:36;;;;;;;1.38;1.00;;;15.70;53.10;;;;;;4215519;28;20500;-58
2021/05/09 09:31:45;;;;;;;3.42;0.80;;;15.60;52.00;;;;;;4205295;28;20110;-56
2021/05/09 09:33:50;;;;;;;1.27;0.85;;;15.60;52.70;;;;;;4205823;28;20093;-52
2021/05/09 09:35:57;;;;;;;1.73;1.23;;;15.50;52.20;;;;;;4202260;28;20073;-66
2021/05/09 09:37:58;;;;;;;0.93;0.90;;;15.50;52.60;;;;;;4205432;28;20085;-56
2021/05/09 09:40:02;;;;;;;2.27;0.83;;;15.40;52.40;;;;;;4205325;28;20184;-57
2021/05/09 09:42:03;;;;;;;2.08;1.38;;;15.50;52.70;;;;;;4205982;28;20079;-65
2021/05/09 09:44:07;;;;;;;2.03;1.08;;;15.40;52.10;;;;;;4205888;28;20044;-65
2021/05/09 09:46:26;;;;;;;2.08;1.40;;;15.20;52.00;;;;;;4217018;28;20027;-59
2021/05/09 09:48:41;;;;;;;1.20;0.80;;;15.30;51.50;;;;;;4219158;28;20429;-67
2021/05/09 09:50:51;;;;;;;1.60;1.00;;;15.20;51.80;;;;;;4205704;28;20028;-57
2021/05/09 09:52:52;;;;;;;0.77;0.70;;;15.30;51.40;;;;;;4204307;28;20040;-56
2021/05/09 09:54:54;;;;;;;1.83;0.80;;;15.30;51.90;;;;;;4205488;28;20024;-60
2021/05/09 09:56:55;;;;;;;1.93;1.10;;;15.20;52.00;;;;;;4204189;28;20116;-55
2021/05/09 09:58:57;;;;;;;2.60;1.40;;;15.20;52.20;;;;;;4205738;28;20028;-54
2021/05/09 10:00:58;;;;;;;1.97;1.20;;;15.50;52.80;;;;;;4203226;28;20028;-57
2021/05/09 10:03:00;;;;;;;2.40;0.80;;;15.80;53.20;;;;;;4205192;28;20033;-59
2021/05/09 10:05:01;;;;;;;2.63;1.00;;;15.80;52.00;;;;;;4204640;28;20032;-52
2021/05/09 10:07:06;;;;;;;1.60;1.10;;;15.70;51.90;;;;;;4205103;28;20097;-57
2021/05/09 10:09:09;;;;;;;1.13;0.90;;;15.60;52.00;;;;;;4205012;28;20044;-53
2021/05/09 10:11:10;;;;;;;1.50;0.98;;;15.50;52.40;;;;;;4205057;28;20036;-59
2021/05/09 10:13:12;;;;;;;1.73;1.40;;;15.60;52.30;;;;;;4203616;28;20024;-58
2021/05/09 10:15:14;;;;;;;2.43;1.80;;;15.50;52.60;;;;;;4204663;28;20089;-58
2021/05/09 10:17:15;;;;;;;3.20;2.37;;;15.60;52.20;;;;;;4204980;28;20492;-58
2021/05/09 10:19:23;;;;;;;4.72;1.88;;;15.40;51.60;;;;;;4204946;28;20043;-55
2021/05/09 10:21:35;;;;;;;2.67;1.73;;;15.40;51.60;;;;;;4204215;28;20097;-57
2021/05/09 10:24:09;;;;;;;1.90;1.37;;;15.50;51.50;;;;;;4205254;28;20036;-65
2021/05/09 10:26:10;;;;;;;2.05;1.42;;;15.40;50.90;;;;;;4203012;28;20040;-64
2021/05/09 10:28:14;;;;;;;3.93;1.63;;;15.50;52.00;;;;;;4205249;28;20086;-66
2021/05/09 10:30:15;;;;;;;2.67;1.63;;;15.50;51.70;;;;;;4203289;28;20061;-66
2021/05/09 10:32:19;;;;;;;1.63;0.90;;;15.50;51.80;;;;;;4204664;28;20066;-63
2021/05/09 10:34:55;;;;;;;3.27;1.10;;;15.60;52.00;;;;;;4205320;28;20092;-65
2021/05/09 10:36:56;;;;;;;1.35;1.20;;;15.60;51.10;;;;;;4204556;28;20100;-54